sensor_id;sensor_type;location;lat;lon;timestamp;temperature;humidity
4578;DHT22;2301;47.354;8.528;2023-02-13T00:01:29;13.50;75.90
4578;DHT22;2301;47.354;8.528;2023-02-13T00:03:56;13.40;75.20
4578;DHT22;2301;47.354;8.528;2023-02-13T00:06:23;13.40;75.10
4578;DHT22;2301;47.354;8.528;2023-02-13T00:08:50;13.50;75.10
4578;DHT22;2301;47.354;8.528;2023-02-13T00:11:17;13.50;74.80
4578;DHT22;2301;47.354;8.528;2023-02-13T00:13:45;13.50;74.10
4578;DHT22;2301;47.354;8.528;2023-02-13T00:16:12;13.50;73.50
4578;DHT22;2301;47.354;8.528;2023-02-13T00:18:40;13.50;73.60
4578;DHT22;2301;47.354;8.528;2023-02-13T00:21:09;13.60;73.80
4578;DHT22;2301;47.354;8.528;2023-02-13T00:23:36;13.60;73.60
4578;DHT22;2301;47.354;8.528;2023-02-13T00:26:06;13.60;72.90
4578;DHT22;2301;47.354;8.528;2023-02-13T00:28:33;13.60;72.40
4578;DHT22;2301;47.354;8.528;2023-02-13T00:31:04;13.70;72.30
4578;DHT22;2301;47.354;8.528;2023-02-13T00:33:31;13.70;71.80
4578;DHT22;2301;47.354;8.528;2023-02-13T00:36:04;13.70;71.30
4578;DHT22;2301;47.354;8.528;2023-02-13T00:38:31;13.70;71.00
4578;DHT22;2301;47.354;8.528;2023-02-13T00:40:58;13.70;70.80
4578;DHT22;2301;47.354;8.528;2023-02-13T00:43:25;13.60;70.70
4578;DHT22;2301;47.354;8.528;2023-02-13T00:45:52;13.60;70.90
4578;DHT22;2301;47.354;8.528;2023-02-13T00:48:19;13.70;70.80
4578;DHT22;2301;47.354;8.528;2023-02-13T00:50:46;13.70;70.40
4578;DHT22;2301;47.354;8.528;2023-02-13T00:53:14;13.70;70.20
4578;DHT22;2301;47.354;8.528;2023-02-13T00:55:41;13.70;69.80
4578;DHT22;2301;47.354;8.528;2023-02-13T00:58:08;13.70;69.50
4578;DHT22;2301;47.354;8.528;2023-02-13T01:00:35;13.70;69.50
4578;DHT22;2301;47.354;8.528;2023-02-13T01:03:02;13.70;69.40
4578;DHT22;2301;47.354;8.528;2023-02-13T01:05:29;13.60;69.60
4578;DHT22;2301;47.354;8.528;2023-02-13T01:07:56;13.60;69.20
4578;DHT22;2301;47.354;8.528;2023-02-13T01:10:25;13.60;68.70
4578;DHT22;2301;47.354;8.528;2023-02-13T01:12:52;13.60;68.50
4578;DHT22;2301;47.354;8.528;2023-02-13T01:15:19;13.60;68.90
4578;DHT22;2301;47.354;8.528;2023-02-13T01:17:46;13.70;69.10
4578;DHT22;2301;47.354;8.528;2023-02-13T01:20:13;13.70;68.70
4578;DHT22;2301;47.354;8.528;2023-02-13T01:22:40;13.70;68.30
4578;DHT22;2301;47.354;8.528;2023-02-13T01:25:09;13.80;68.20
4578;DHT22;2301;47.354;8.528;2023-02-13T01:27:38;13.80;67.90
4578;DHT22;2301;47.354;8.528;2023-02-13T01:30:06;13.70;67.80
4578;DHT22;2301;47.354;8.528;2023-02-13T01:32:36;13.70;67.80
4578;DHT22;2301;47.354;8.528;2023-02-13T01:35:03;13.70;68.10
4578;DHT22;2301;47.354;8.528;2023-02-13T01:37:30;13.70;67.80
4578;DHT22;2301;47.354;8.528;2023-02-13T01:39:57;13.80;67.40
4578;DHT22;2301;47.354;8.528;2023-02-13T01:42:26;13.80;67.10
4578;DHT22;2301;47.354;8.528;2023-02-13T01:44:55;13.80;66.90
4578;DHT22;2301;47.354;8.528;2023-02-13T01:47:26;13.80;67.10
4578;DHT22;2301;47.354;8.528;2023-02-13T01:50:02;13.80;66.60
4578;DHT22;2301;47.354;8.528;2023-02-13T01:52:31;13.80;66.30
4578;DHT22;2301;47.354;8.528;2023-02-13T01:54:58;13.70;66.50
4578;DHT22;2301;47.354;8.528;2023-02-13T01:57:27;13.80;66.60
4578;DHT22;2301;47.354;8.528;2023-02-13T01:59:59;13.80;66.20
4578;DHT22;2301;47.354;8.528;2023-02-13T02:02:29;13.80;66.00
4578;DHT22;2301;47.354;8.528;2023-02-13T02:04:57;13.80;66.60
4578;DHT22;2301;47.354;8.528;2023-02-13T02:07:26;13.80;66.00
4578;DHT22;2301;47.354;8.528;2023-02-13T02:09:57;13.80;65.90
4578;DHT22;2301;47.354;8.528;2023-02-13T02:12:30;13.80;65.30
4578;DHT22;2301;47.354;8.528;2023-02-13T02:15:03;13.70;66.20
4578;DHT22;2301;47.354;8.528;2023-02-13T02:17:31;13.70;66.10
4578;DHT22;2301;47.354;8.528;2023-02-13T02:20:06;13.70;66.20
4578;DHT22;2301;47.354;8.528;2023-02-13T02:26:16;13.80;65.80
4578;DHT22;2301;47.354;8.528;2023-02-13T02:29:09;13.80;65.90
4578;DHT22;2301;47.354;8.528;2023-02-13T02:32:13;13.80;65.60
4578;DHT22;2301;47.354;8.528;2023-02-13T02:34:51;13.80;65.50
4578;DHT22;2301;47.354;8.528;2023-02-13T02:37:31;13.70;65.60
4578;DHT22;2301;47.354;8.528;2023-02-13T02:40:12;13.80;65.90
4578;DHT22;2301;47.354;8.528;2023-02-13T02:43:00;13.80;65.70
4578;DHT22;2301;47.354;8.528;2023-02-13T02:45:37;13.80;65.10
4578;DHT22;2301;47.354;8.528;2023-02-13T02:48:22;13.80;65.20
4578;DHT22;2301;47.354;8.528;2023-02-13T02:51:13;13.80;65.00
4578;DHT22;2301;47.354;8.528;2023-02-13T02:53:47;13.80;65.20
4578;DHT22;2301;47.354;8.528;2023-02-13T02:56:23;13.80;65.10
4578;DHT22;2301;47.354;8.528;2023-02-13T02:58:53;13.80;65.20
4578;DHT22;2301;47.354;8.528;2023-02-13T03:01:40;13.80;65.40
4578;DHT22;2301;47.354;8.528;2023-02-13T03:04:30;13.80;65.30
4578;DHT22;2301;47.354;8.528;2023-02-13T03:07:16;13.80;65.30
4578;DHT22;2301;47.354;8.528;2023-02-13T03:09:46;13.80;65.30
4578;DHT22;2301;47.354;8.528;2023-02-13T03:12:37;13.80;65.30
4578;DHT22;2301;47.354;8.528;2023-02-13T03:15:22;13.80;65.20
4578;DHT22;2301;47.354;8.528;2023-02-13T03:17:51;13.80;64.90
4578;DHT22;2301;47.354;8.528;2023-02-13T03:20:44;13.80;64.60
4578;DHT22;2301;47.354;8.528;2023-02-13T03:23:35;13.70;64.40
4578;DHT22;2301;47.354;8.528;2023-02-13T03:26:19;13.70;64.80
4578;DHT22;2301;47.354;8.528;2023-02-13T03:29:03;13.70;64.70
4578;DHT22;2301;47.354;8.528;2023-02-13T03:31:53;13.70;64.50
4578;DHT22;2301;47.354;8.528;2023-02-13T03:34:28;13.60;64.80
4578;DHT22;2301;47.354;8.528;2023-02-13T03:37:18;13.70;64.80
4578;DHT22;2301;47.354;8.528;2023-02-13T03:40:08;13.60;64.80
4578;DHT22;2301;47.354;8.528;2023-02-13T03:42:42;13.80;64.70
4578;DHT22;2301;47.354;8.528;2023-02-13T03:45:12;13.70;64.30
4578;DHT22;2301;47.354;8.528;2023-02-13T03:48:00;13.70;64.40
4578;DHT22;2301;47.354;8.528;2023-02-13T03:50:37;13.70;64.00
4578;DHT22;2301;47.354;8.528;2023-02-13T03:53:09;13.70;64.40
4578;DHT22;2301;47.354;8.528;2023-02-13T03:55:40;13.70;64.40
4578;DHT22;2301;47.354;8.528;2023-02-13T03:58:28;13.70;64.30
4578;DHT22;2301;47.354;8.528;2023-02-13T04:01:15;13.70;64.30
4578;DHT22;2301;47.354;8.528;2023-02-13T04:03:47;13.70;64.30
4578;DHT22;2301;47.354;8.528;2023-02-13T04:06:17;13.70;64.20
4578;DHT22;2301;47.354;8.528;2023-02-13T04:08:47;13.70;64.10
4578;DHT22;2301;47.354;8.528;2023-02-13T04:11:17;13.70;62.60
4578;DHT22;2301;47.354;8.528;2023-02-13T04:13:50;13.30;59.00
4578;DHT22;2301;47.354;8.528;2023-02-13T04:16:21;12.90;58.20
4578;DHT22;2301;47.354;8.528;2023-02-13T04:18:51;12.40;58.40
4578;DHT22;2301;47.354;8.528;2023-02-13T04:21:18;11.90;59.00
4578;DHT22;2301;47.354;8.528;2023-02-13T04:23:47;11.50;59.50
4578;DHT22;2301;47.354;8.528;2023-02-13T04:26:16;11.20;60.20
4578;DHT22;2301;47.354;8.528;2023-02-13T04:28:44;10.90;60.90
4578;DHT22;2301;47.354;8.528;2023-02-13T04:31:11;10.60;61.80
4578;DHT22;2301;47.354;8.528;2023-02-13T04:33:37;10.40;62.40
4578;DHT22;2301;47.354;8.528;2023-02-13T04:36:05;10.20;63.00
4578;DHT22;2301;47.354;8.528;2023-02-13T04:38:32;9.90;64.70
4578;DHT22;2301;47.354;8.528;2023-02-13T04:41:00;9.70;65.20
4578;DHT22;2301;47.354;8.528;2023-02-13T04:43:28;9.60;65.80
4578;DHT22;2301;47.354;8.528;2023-02-13T04:45:55;9.50;66.20
4578;DHT22;2301;47.354;8.528;2023-02-13T04:48:22;9.40;66.60
4578;DHT22;2301;47.354;8.528;2023-02-13T04:50:49;9.30;66.90
4578;DHT22;2301;47.354;8.528;2023-02-13T04:53:16;9.20;67.20
4578;DHT22;2301;47.354;8.528;2023-02-13T04:55:43;9.10;67.60
4578;DHT22;2301;47.354;8.528;2023-02-13T04:58:11;9.00;68.10
4578;DHT22;2301;47.354;8.528;2023-02-13T05:00:38;8.90;68.70
4578;DHT22;2301;47.354;8.528;2023-02-13T05:03:06;8.80;69.20
4578;DHT22;2301;47.354;8.528;2023-02-13T05:05:34;8.60;69.90
4578;DHT22;2301;47.354;8.528;2023-02-13T05:08:01;8.50;70.30
4578;DHT22;2301;47.354;8.528;2023-02-13T05:10:28;8.40;70.50
4578;DHT22;2301;47.354;8.528;2023-02-13T05:12:55;8.30;70.80
4578;DHT22;2301;47.354;8.528;2023-02-13T05:15:24;8.30;71.10
4578;DHT22;2301;47.354;8.528;2023-02-13T05:17:51;8.10;71.80
4578;DHT22;2301;47.354;8.528;2023-02-13T05:20:18;8.10;72.10
4578;DHT22;2301;47.354;8.528;2023-02-13T05:22:45;8.10;72.20
4578;DHT22;2301;47.354;8.528;2023-02-13T05:25:30;8.00;72.30
4578;DHT22;2301;47.354;8.528;2023-02-13T05:27:57;7.90;72.60
4578;DHT22;2301;47.354;8.528;2023-02-13T05:30:26;7.90;72.90
4578;DHT22;2301;47.354;8.528;2023-02-13T05:32:52;7.90;73.40
4578;DHT22;2301;47.354;8.528;2023-02-13T05:35:20;7.80;73.80
4578;DHT22;2301;47.354;8.528;2023-02-13T05:37:47;7.80;74.10
4578;DHT22;2301;47.354;8.528;2023-02-13T05:40:14;7.70;74.20
4578;DHT22;2301;47.354;8.528;2023-02-13T05:42:41;7.70;74.30
4578;DHT22;2301;47.354;8.528;2023-02-13T05:45:09;7.70;74.20
4578;DHT22;2301;47.354;8.528;2023-02-13T05:47:37;7.60;74.50
4578;DHT22;2301;47.354;8.528;2023-02-13T05:50:05;7.60;74.40
4578;DHT22;2301;47.354;8.528;2023-02-13T05:52:32;7.60;74.70
4578;DHT22;2301;47.354;8.528;2023-02-13T05:54:59;7.60;74.70
4578;DHT22;2301;47.354;8.528;2023-02-13T05:57:26;7.60;74.80
4578;DHT22;2301;47.354;8.528;2023-02-13T05:59:53;7.50;74.90
4578;DHT22;2301;47.354;8.528;2023-02-13T06:02:20;7.30;75.00
4578;DHT22;2301;47.354;8.528;2023-02-13T06:04:49;7.20;75.00
4578;DHT22;2301;47.354;8.528;2023-02-13T06:07:16;7.20;75.20
4578;DHT22;2301;47.354;8.528;2023-02-13T06:09:43;7.20;75.20
4578;DHT22;2301;47.354;8.528;2023-02-13T06:12:10;7.20;75.50
4578;DHT22;2301;47.354;8.528;2023-02-13T06:14:36;7.20;76.00
4578;DHT22;2301;47.354;8.528;2023-02-13T06:17:03;7.10;76.00
4578;DHT22;2301;47.354;8.528;2023-02-13T06:19:30;7.10;76.40
4578;DHT22;2301;47.354;8.528;2023-02-13T06:22:00;7.00;76.40
4578;DHT22;2301;47.354;8.528;2023-02-13T06:24:27;7.00;76.50
4578;DHT22;2301;47.354;8.528;2023-02-13T06:26:53;6.90;76.90
4578;DHT22;2301;47.354;8.528;2023-02-13T06:29:20;6.90;77.10
4578;DHT22;2301;47.354;8.528;2023-02-13T06:31:47;6.80;77.80
4578;DHT22;2301;47.354;8.528;2023-02-13T06:34:14;6.80;77.90
4578;DHT22;2301;47.354;8.528;2023-02-13T06:36:41;6.80;77.80
4578;DHT22;2301;47.354;8.528;2023-02-13T06:39:10;6.80;78.00
4578;DHT22;2301;47.354;8.528;2023-02-13T06:41:37;6.80;78.00
4578;DHT22;2301;47.354;8.528;2023-02-13T06:44:04;6.80;78.10
4578;DHT22;2301;47.354;8.528;2023-02-13T06:46:32;6.80;78.30
4578;DHT22;2301;47.354;8.528;2023-02-13T06:48:59;6.70;78.40
4578;DHT22;2301;47.354;8.528;2023-02-13T06:51:26;6.70;78.50
4578;DHT22;2301;47.354;8.528;2023-02-13T06:53:53;6.70;78.60
4578;DHT22;2301;47.354;8.528;2023-02-13T06:56:21;6.70;78.90
4578;DHT22;2301;47.354;8.528;2023-02-13T06:58:48;6.70;79.20
4578;DHT22;2301;47.354;8.528;2023-02-13T07:01:15;6.60;79.40
4578;DHT22;2301;47.354;8.528;2023-02-13T07:03:42;6.60;80.40
4578;DHT22;2301;47.354;8.528;2023-02-13T07:06:10;6.60;80.30
4578;DHT22;2301;47.354;8.528;2023-02-13T07:08:36;6.60;79.80
4578;DHT22;2301;47.354;8.528;2023-02-13T07:11:04;6.60;79.50
4578;DHT22;2301;47.354;8.528;2023-02-13T07:13:32;6.60;79.60
4578;DHT22;2301;47.354;8.528;2023-02-13T07:16:00;6.60;79.70
4578;DHT22;2301;47.354;8.528;2023-02-13T07:18:27;6.50;79.60
4578;DHT22;2301;47.354;8.528;2023-02-13T07:20:54;6.50;79.70
4578;DHT22;2301;47.354;8.528;2023-02-13T07:23:23;6.50;79.70
4578;DHT22;2301;47.354;8.528;2023-02-13T07:25:50;6.50;79.60
4578;DHT22;2301;47.354;8.528;2023-02-13T07:28:17;6.50;79.70
4578;DHT22;2301;47.354;8.528;2023-02-13T07:30:45;6.50;79.70
4578;DHT22;2301;47.354;8.528;2023-02-13T07:33:12;6.50;80.10
4578;DHT22;2301;47.354;8.528;2023-02-13T07:35:39;6.50;80.20
4578;DHT22;2301;47.354;8.528;2023-02-13T07:38:11;6.50;80.30
4578;DHT22;2301;47.354;8.528;2023-02-13T07:40:38;6.50;81.00
4578;DHT22;2301;47.354;8.528;2023-02-13T07:43:05;6.60;80.30
4578;DHT22;2301;47.354;8.528;2023-02-13T07:45:32;6.60;80.50
4578;DHT22;2301;47.354;8.528;2023-02-13T07:48:00;6.50;80.50
4578;DHT22;2301;47.354;8.528;2023-02-13T07:50:27;6.50;80.50
4578;DHT22;2301;47.354;8.528;2023-02-13T07:52:55;6.50;80.70
4578;DHT22;2301;47.354;8.528;2023-02-13T07:55:22;6.50;80.70
4578;DHT22;2301;47.354;8.528;2023-02-13T07:57:49;6.50;80.70
4578;DHT22;2301;47.354;8.528;2023-02-13T08:00:17;6.50;80.80
4578;DHT22;2301;47.354;8.528;2023-02-13T08:02:44;6.50;80.90
4578;DHT22;2301;47.354;8.528;2023-02-13T08:05:13;7.00;90.20
4578;DHT22;2301;47.354;8.528;2023-02-13T08:07:40;7.10;86.40
4578;DHT22;2301;47.354;8.528;2023-02-13T08:10:08;7.10;83.50
4578;DHT22;2301;47.354;8.528;2023-02-13T08:12:52;7.00;81.80
4578;DHT22;2301;47.354;8.528;2023-02-13T08:15:20;7.00;81.20
4578;DHT22;2301;47.354;8.528;2023-02-13T08:17:47;6.90;80.80
4578;DHT22;2301;47.354;8.528;2023-02-13T08:20:15;6.80;80.50
4578;DHT22;2301;47.354;8.528;2023-02-13T08:22:42;6.80;80.50
4578;DHT22;2301;47.354;8.528;2023-02-13T08:25:09;6.80;80.60
4578;DHT22;2301;47.354;8.528;2023-02-13T08:27:37;6.80;80.50
4578;DHT22;2301;47.354;8.528;2023-02-13T08:30:05;6.80;80.60
4578;DHT22;2301;47.354;8.528;2023-02-13T08:32:32;6.80;80.60
4578;DHT22;2301;47.354;8.528;2023-02-13T08:34:59;6.80;80.60
4578;DHT22;2301;47.354;8.528;2023-02-13T08:37:28;6.80;80.60
4578;DHT22;2301;47.354;8.528;2023-02-13T08:39:55;6.80;80.60
4578;DHT22;2301;47.354;8.528;2023-02-13T08:42:22;6.70;80.70
4578;DHT22;2301;47.354;8.528;2023-02-13T08:44:49;6.70;80.80
4578;DHT22;2301;47.354;8.528;2023-02-13T08:47:15;6.80;80.80
4578;DHT22;2301;47.354;8.528;2023-02-13T08:49:42;7.50;88.00
4578;DHT22;2301;47.354;8.528;2023-02-13T08:52:09;7.60;83.80
4578;DHT22;2301;47.354;8.528;2023-02-13T08:54:38;7.60;81.40
4578;DHT22;2301;47.354;8.528;2023-02-13T08:57:04;7.50;80.10
4578;DHT22;2301;47.354;8.528;2023-02-13T08:59:33;7.40;79.40
4578;DHT22;2301;47.354;8.528;2023-02-13T09:02:00;7.30;79.30
4578;DHT22;2301;47.354;8.528;2023-02-13T09:04:27;7.30;79.20
4578;DHT22;2301;47.354;8.528;2023-02-13T09:06:54;7.30;79.10
4578;DHT22;2301;47.354;8.528;2023-02-13T09:09:21;7.20;78.90
4578;DHT22;2301;47.354;8.528;2023-02-13T09:11:50;7.20;79.10
4578;DHT22;2301;47.354;8.528;2023-02-13T09:14:18;7.20;79.40
4578;DHT22;2301;47.354;8.528;2023-02-13T09:16:45;7.10;79.10
4578;DHT22;2301;47.354;8.528;2023-02-13T09:19:12;7.10;79.20
4578;DHT22;2301;47.354;8.528;2023-02-13T09:21:39;7.10;79.10
4578;DHT22;2301;47.354;8.528;2023-02-13T09:24:06;7.00;79.00
4578;DHT22;2301;47.354;8.528;2023-02-13T09:26:33;7.00;79.20
4578;DHT22;2301;47.354;8.528;2023-02-13T09:29:02;7.00;79.20
4578;DHT22;2301;47.354;8.528;2023-02-13T09:31:29;7.10;79.40
4578;DHT22;2301;47.354;8.528;2023-02-13T09:33:56;7.00;79.40
4578;DHT22;2301;47.354;8.528;2023-02-13T09:36:23;7.00;79.50
4578;DHT22;2301;47.354;8.528;2023-02-13T09:38:52;7.00;79.50
4578;DHT22;2301;47.354;8.528;2023-02-13T09:41:23;7.00;79.50
4578;DHT22;2301;47.354;8.528;2023-02-13T09:43:53;7.10;79.40
4578;DHT22;2301;47.354;8.528;2023-02-13T09:46:24;7.10;79.30
4578;DHT22;2301;47.354;8.528;2023-02-13T09:48:55;7.10;79.40
4578;DHT22;2301;47.354;8.528;2023-02-13T09:51:23;7.10;79.50
4578;DHT22;2301;47.354;8.528;2023-02-13T09:53:54;7.10;79.40
4578;DHT22;2301;47.354;8.528;2023-02-13T09:56:34;7.10;79.40
4578;DHT22;2301;47.354;8.528;2023-02-13T09:59:08;7.00;79.30
4578;DHT22;2301;47.354;8.528;2023-02-13T10:01:46;7.00;79.40
4578;DHT22;2301;47.354;8.528;2023-02-13T10:04:26;7.00;79.60
4578;DHT22;2301;47.354;8.528;2023-02-13T10:07:06;7.00;79.50
4578;DHT22;2301;47.354;8.528;2023-02-13T10:09:40;7.00;79.70
4578;DHT22;2301;47.354;8.528;2023-02-13T10:12:39;7.00;80.50
4578;DHT22;2301;47.354;8.528;2023-02-13T10:15:30;7.10;80.50
4578;DHT22;2301;47.354;8.528;2023-02-13T10:18:09;7.20;80.20
4578;DHT22;2301;47.354;8.528;2023-02-13T10:20:42;7.20;79.80
4578;DHT22;2301;47.354;8.528;2023-02-13T10:23:24;7.20;79.60
4578;DHT22;2301;47.354;8.528;2023-02-13T10:25:56;7.20;80.00
4578;DHT22;2301;47.354;8.528;2023-02-13T10:31:48;7.30;79.60
4578;DHT22;2301;47.354;8.528;2023-02-13T10:34:23;7.30;79.60
4578;DHT22;2301;47.354;8.528;2023-02-13T10:36:51;7.30;79.70
4578;DHT22;2301;47.354;8.528;2023-02-13T10:39:22;7.20;79.80
4578;DHT22;2301;47.354;8.528;2023-02-13T10:41:52;7.30;80.50
4578;DHT22;2301;47.354;8.528;2023-02-13T10:44:45;7.30;80.70
4578;DHT22;2301;47.354;8.528;2023-02-13T10:47:26;7.30;80.40
4578;DHT22;2301;47.354;8.528;2023-02-13T10:50:08;7.30;80.20
4578;DHT22;2301;47.354;8.528;2023-02-13T10:52:43;7.30;80.60
4578;DHT22;2301;47.354;8.528;2023-02-13T10:58:11;7.50;80.50
4578;DHT22;2301;47.354;8.528;2023-02-13T11:00:43;7.60;80.40
4578;DHT22;2301;47.354;8.528;2023-02-13T11:03:17;7.60;80.30
4578;DHT22;2301;47.354;8.528;2023-02-13T11:05:45;7.70;79.40
4578;DHT22;2301;47.354;8.528;2023-02-13T11:08:19;7.70;79.20
4578;DHT22;2301;47.354;8.528;2023-02-13T11:10:47;7.60;79.00
4578;DHT22;2301;47.354;8.528;2023-02-13T11:13:17;7.50;78.70
4578;DHT22;2301;47.354;8.528;2023-02-13T11:15:59;7.50;79.00
4578;DHT22;2301;47.354;8.528;2023-02-13T11:18:28;7.60;79.10
4578;DHT22;2301;47.354;8.528;2023-02-13T11:21:05;7.60;78.70
4578;DHT22;2301;47.354;8.528;2023-02-13T11:23:37;7.60;78.70
4578;DHT22;2301;47.354;8.528;2023-02-13T11:26:06;7.60;79.10
4578;DHT22;2301;47.354;8.528;2023-02-13T11:28:37;7.60;79.00
4578;DHT22;2301;47.354;8.528;2023-02-13T11:31:27;7.60;78.90
4578;DHT22;2301;47.354;8.528;2023-02-13T11:33:55;7.50;78.70
4578;DHT22;2301;47.354;8.528;2023-02-13T11:36:26;7.40;78.60
4578;DHT22;2301;47.354;8.528;2023-02-13T11:39:01;7.40;78.80
4578;DHT22;2301;47.354;8.528;2023-02-13T11:41:36;7.50;79.30
4578;DHT22;2301;47.354;8.528;2023-02-13T11:44:16;7.60;79.50
4578;DHT22;2301;47.354;8.528;2023-02-13T11:46:46;7.60;79.30
4578;DHT22;2301;47.354;8.528;2023-02-13T11:49:17;7.70;79.10
4578;DHT22;2301;47.354;8.528;2023-02-13T11:51:48;7.70;79.30
4578;DHT22;2301;47.354;8.528;2023-02-13T11:54:25;7.80;79.50
4578;DHT22;2301;47.354;8.528;2023-02-13T11:56:55;8.00;79.40
4578;DHT22;2301;47.354;8.528;2023-02-13T11:59:23;8.00;78.90
4578;DHT22;2301;47.354;8.528;2023-02-13T12:02:13;8.10;79.00
4578;DHT22;2301;47.354;8.528;2023-02-13T12:04:40;8.10;78.60
4578;DHT22;2301;47.354;8.528;2023-02-13T12:07:15;8.10;78.30
4578;DHT22;2301;47.354;8.528;2023-02-13T12:09:46;8.10;78.40
4578;DHT22;2301;47.354;8.528;2023-02-13T12:12:18;8.10;77.90
4578;DHT22;2301;47.354;8.528;2023-02-13T12:14:47;8.10;77.80
4578;DHT22;2301;47.354;8.528;2023-02-13T12:17:16;8.10;78.30
4578;DHT22;2301;47.354;8.528;2023-02-13T12:19:46;8.30;78.90
4578;DHT22;2301;47.354;8.528;2023-02-13T12:25:24;8.50;78.00
4578;DHT22;2301;47.354;8.528;2023-02-13T12:28:05;8.60;78.10
4578;DHT22;2301;47.354;8.528;2023-02-13T12:36:37;8.70;76.90
4578;DHT22;2301;47.354;8.528;2023-02-13T12:39:17;8.60;76.30
4578;DHT22;2301;47.354;8.528;2023-02-13T12:41:52;8.60;77.10
4578;DHT22;2301;47.354;8.528;2023-02-13T12:44:53;8.80;77.80
4578;DHT22;2301;47.354;8.528;2023-02-13T12:47:25;8.90;77.90
4578;DHT22;2301;47.354;8.528;2023-02-13T12:52:59;9.00;76.20
4578;DHT22;2301;47.354;8.528;2023-02-13T12:56:01;8.90;75.60
4578;DHT22;2301;47.354;8.528;2023-02-13T12:58:51;9.00;76.10
4578;DHT22;2301;47.354;8.528;2023-02-13T13:01:30;9.00;75.60
4578;DHT22;2301;47.354;8.528;2023-02-13T13:04:08;8.90;75.20
4578;DHT22;2301;47.354;8.528;2023-02-13T13:06:52;9.00;75.00
4578;DHT22;2301;47.354;8.528;2023-02-13T13:16:21;9.40;76.10
4578;DHT22;2301;47.354;8.528;2023-02-13T13:19:17;9.70;77.30
4578;DHT22;2301;47.354;8.528;2023-02-13T13:21:59;9.80;75.60
4578;DHT22;2301;47.354;8.528;2023-02-13T13:24:50;10.00;74.70
4578;DHT22;2301;47.354;8.528;2023-02-13T13:27:41;10.10;73.70
4578;DHT22;2301;47.354;8.528;2023-02-13T13:30:17;10.20;73.30
4578;DHT22;2301;47.354;8.528;2023-02-13T13:33:06;10.40;73.20
4578;DHT22;2301;47.354;8.528;2023-02-13T13:35:40;10.40;71.50
4578;DHT22;2301;47.354;8.528;2023-02-13T13:38:12;10.40;72.00
4578;DHT22;2301;47.354;8.528;2023-02-13T13:40:46;10.50;72.50
4578;DHT22;2301;47.354;8.528;2023-02-13T13:43:23;10.70;71.50
4578;DHT22;2301;47.354;8.528;2023-02-13T13:46:06;10.70;70.90
4578;DHT22;2301;47.354;8.528;2023-02-13T13:48:49;10.70;69.90
4578;DHT22;2301;47.354;8.528;2023-02-13T13:51:20;10.70;69.70
4578;DHT22;2301;47.354;8.528;2023-02-13T13:54:18;10.70;70.20
4578;DHT22;2301;47.354;8.528;2023-02-13T13:57:21;10.70;69.80
4578;DHT22;2301;47.354;8.528;2023-02-13T14:00:25;10.70;69.10
4578;DHT22;2301;47.354;8.528;2023-02-13T14:03:25;10.60;69.10
4578;DHT22;2301;47.354;8.528;2023-02-13T14:06:22;10.50;69.40
4578;DHT22;2301;47.354;8.528;2023-02-13T14:12:44;10.40;69.20
4578;DHT22;2301;47.354;8.528;2023-02-13T14:18:43;10.20;69.50
4578;DHT22;2301;47.354;8.528;2023-02-13T14:21:27;10.10;69.70
4578;DHT22;2301;47.354;8.528;2023-02-13T14:24:30;10.10;69.60
4578;DHT22;2301;47.354;8.528;2023-02-13T14:30:45;10.10;70.20
4578;DHT22;2301;47.354;8.528;2023-02-13T14:33:30;10.00;70.00
4578;DHT22;2301;47.354;8.528;2023-02-13T14:36:22;10.00;70.00
4578;DHT22;2301;47.354;8.528;2023-02-13T14:39:28;10.10;70.60
4578;DHT22;2301;47.354;8.528;2023-02-13T14:42:20;10.10;70.60
4578;DHT22;2301;47.354;8.528;2023-02-13T14:45:24;10.20;70.00
4578;DHT22;2301;47.354;8.528;2023-02-13T14:52:07;10.30;69.70
4578;DHT22;2301;47.354;8.528;2023-02-13T15:02:47;10.40;69.60
4578;DHT22;2301;47.354;8.528;2023-02-13T15:05:32;10.40;69.40
4578;DHT22;2301;47.354;8.528;2023-02-13T15:08:54;10.40;69.30
4578;DHT22;2301;47.354;8.528;2023-02-13T15:25:55;10.40;69.20
4578;DHT22;2301;47.354;8.528;2023-02-13T15:29:03;10.40;69.40
4578;DHT22;2301;47.354;8.528;2023-02-13T15:31:49;10.30;69.20
4578;DHT22;2301;47.354;8.528;2023-02-13T16:08:35;9.60;70.90
4578;DHT22;2301;47.354;8.528;2023-02-13T16:11:27;9.50;71.30
4578;DHT22;2301;47.354;8.528;2023-02-13T16:14:16;9.40;70.50
4578;DHT22;2301;47.354;8.528;2023-02-13T16:16:54;9.40;70.70
4578;DHT22;2301;47.354;8.528;2023-02-13T16:19:27;9.40;70.70
4578;DHT22;2301;47.354;8.528;2023-02-13T16:22:00;9.30;70.80
4578;DHT22;2301;47.354;8.528;2023-02-13T16:24:30;9.40;70.90
4578;DHT22;2301;47.354;8.528;2023-02-13T16:26:57;9.30;70.80
4578;DHT22;2301;47.354;8.528;2023-02-13T16:29:25;9.30;71.10
4578;DHT22;2301;47.354;8.528;2023-02-13T16:32:00;9.30;71.20
4578;DHT22;2301;47.354;8.528;2023-02-13T16:34:29;9.20;71.50
4578;DHT22;2301;47.354;8.528;2023-02-13T16:36:57;9.20;71.50
4578;DHT22;2301;47.354;8.528;2023-02-13T16:39:26;9.20;71.40
4578;DHT22;2301;47.354;8.528;2023-02-13T16:41:56;9.10;71.30
4578;DHT22;2301;47.354;8.528;2023-02-13T16:44:26;9.10;71.30
4578;DHT22;2301;47.354;8.528;2023-02-13T16:46:55;9.00;71.50
4578;DHT22;2301;47.354;8.528;2023-02-13T16:49:27;9.00;71.70
4578;DHT22;2301;47.354;8.528;2023-02-13T16:52:09;8.90;71.60
4578;DHT22;2301;47.354;8.528;2023-02-13T16:54:46;8.90;71.70
4578;DHT22;2301;47.354;8.528;2023-02-13T16:57:22;8.90;71.70
4578;DHT22;2301;47.354;8.528;2023-02-13T16:59:54;8.90;71.80
4578;DHT22;2301;47.354;8.528;2023-02-13T17:02:23;8.80;71.70
4578;DHT22;2301;47.354;8.528;2023-02-13T17:04:53;8.70;71.80
4578;DHT22;2301;47.354;8.528;2023-02-13T17:07:23;8.70;72.10
4578;DHT22;2301;47.354;8.528;2023-02-13T17:09:58;8.70;72.60
4578;DHT22;2301;47.354;8.528;2023-02-13T17:12:28;8.70;73.20
4578;DHT22;2301;47.354;8.528;2023-02-13T17:14:57;8.70;73.50
4578;DHT22;2301;47.354;8.528;2023-02-13T17:17:26;8.60;73.50
4578;DHT22;2301;47.354;8.528;2023-02-13T17:19:55;8.50;73.50
4578;DHT22;2301;47.354;8.528;2023-02-13T17:22:34;8.50;73.50
4578;DHT22;2301;47.354;8.528;2023-02-13T17:25:04;8.50;73.20
4578;DHT22;2301;47.354;8.528;2023-02-13T17:27:36;8.40;73.10
4578;DHT22;2301;47.354;8.528;2023-02-13T17:30:04;8.30;72.90
4578;DHT22;2301;47.354;8.528;2023-02-13T17:32:35;8.20;73.10
4578;DHT22;2301;47.354;8.528;2023-02-13T17:35:02;8.20;73.10
4578;DHT22;2301;47.354;8.528;2023-02-13T17:37:30;8.10;73.00
4578;DHT22;2301;47.354;8.528;2023-02-13T17:39:58;8.10;73.20
4578;DHT22;2301;47.354;8.528;2023-02-13T17:42:26;8.00;73.40
4578;DHT22;2301;47.354;8.528;2023-02-13T17:44:56;8.00;73.40
4578;DHT22;2301;47.354;8.528;2023-02-13T17:47:24;8.00;73.50
4578;DHT22;2301;47.354;8.528;2023-02-13T17:49:51;7.90;73.50
4578;DHT22;2301;47.354;8.528;2023-02-13T17:52:20;7.90;74.20
4578;DHT22;2301;47.354;8.528;2023-02-13T17:54:48;7.80;73.50
4578;DHT22;2301;47.354;8.528;2023-02-13T17:57:16;7.80;73.60
4578;DHT22;2301;47.354;8.528;2023-02-13T17:59:43;7.80;73.80
4578;DHT22;2301;47.354;8.528;2023-02-13T18:02:16;7.70;73.70
4578;DHT22;2301;47.354;8.528;2023-02-13T18:04:44;7.70;73.80
4578;DHT22;2301;47.354;8.528;2023-02-13T18:07:11;7.70;73.80
4578;DHT22;2301;47.354;8.528;2023-02-13T18:09:39;7.60;73.70
4578;DHT22;2301;47.354;8.528;2023-02-13T18:12:06;7.60;73.60
4578;DHT22;2301;47.354;8.528;2023-02-13T18:14:34;7.50;73.50
4578;DHT22;2301;47.354;8.528;2023-02-13T18:17:01;7.50;73.60
4578;DHT22;2301;47.354;8.528;2023-02-13T18:19:29;7.40;73.60
4578;DHT22;2301;47.354;8.528;2023-02-13T18:21:56;7.40;73.90
4578;DHT22;2301;47.354;8.528;2023-02-13T18:24:27;7.30;74.40
4578;DHT22;2301;47.354;8.528;2023-02-13T18:26:55;7.30;74.60
4578;DHT22;2301;47.354;8.528;2023-02-13T18:29:22;7.20;74.40